sensor_id;sensor_type;location;lat;lon;timestamp;temperature;humidity
810;DHT22;387;48.772;9.186;2023-05-07T00:02:02;15.80;75.20
810;DHT22;387;48.772;9.186;2023-05-07T00:04:29;15.80;74.90
810;DHT22;387;48.772;9.186;2023-05-07T00:07:01;15.80;74.90
810;DHT22;387;48.772;9.186;2023-05-07T00:09:26;15.80;75.10
810;DHT22;387;48.772;9.186;2023-05-07T00:11:52;15.80;75.10
810;DHT22;387;48.772;9.186;2023-05-07T00:14:18;15.80;74.90
810;DHT22;387;48.772;9.186;2023-05-07T00:16:44;15.80;74.90
810;DHT22;387;48.772;9.186;2023-05-07T00:19:09;15.80;75.20
810;DHT22;387;48.772;9.186;2023-05-07T00:21:35;15.70;75.50
810;DHT22;387;48.772;9.186;2023-05-07T00:24:01;15.70;75.50
810;DHT22;387;48.772;9.186;2023-05-07T00:26:26;15.60;75.80
810;DHT22;387;48.772;9.186;2023-05-07T00:28:52;15.60;75.90
810;DHT22;387;48.772;9.186;2023-05-07T00:31:18;15.70;75.80
810;DHT22;387;48.772;9.186;2023-05-07T00:33:43;15.60;75.80
810;DHT22;387;48.772;9.186;2023-05-07T00:36:09;15.50;76.20
810;DHT22;387;48.772;9.186;2023-05-07T00:38:35;15.50;76.20
810;DHT22;387;48.772;9.186;2023-05-07T00:41:00;15.50;76.40
810;DHT22;387;48.772;9.186;2023-05-07T00:43:27;15.40;76.70
810;DHT22;387;48.772;9.186;2023-05-07T00:45:53;15.40;76.70
810;DHT22;387;48.772;9.186;2023-05-07T00:48:19;15.40;77.00
810;DHT22;387;48.772;9.186;2023-05-07T00:50:45;15.40;77.00
810;DHT22;387;48.772;9.186;2023-05-07T00:53:12;15.40;76.70
810;DHT22;387;48.772;9.186;2023-05-07T00:55:38;15.30;76.80
810;DHT22;387;48.772;9.186;2023-05-07T00:58:04;15.30;77.00
810;DHT22;387;48.772;9.186;2023-05-07T01:00:31;15.30;77.10
810;DHT22;387;48.772;9.186;2023-05-07T01:02:57;15.20;77.00
810;DHT22;387;48.772;9.186;2023-05-07T01:05:23;15.20;77.10
810;DHT22;387;48.772;9.186;2023-05-07T01:07:50;15.20;77.30
810;DHT22;387;48.772;9.186;2023-05-07T01:10:16;15.20;77.30
810;DHT22;387;48.772;9.186;2023-05-07T01:12:43;15.20;77.80
810;DHT22;387;48.772;9.186;2023-05-07T01:15:10;15.10;78.00
810;DHT22;387;48.772;9.186;2023-05-07T01:17:36;15.20;78.00
810;DHT22;387;48.772;9.186;2023-05-07T01:20:04;15.10;78.40
810;DHT22;387;48.772;9.186;2023-05-07T01:22:34;14.90;79.30
810;DHT22;387;48.772;9.186;2023-05-07T01:25:02;14.70;79.70
810;DHT22;387;48.772;9.186;2023-05-07T01:27:28;14.60;80.00
810;DHT22;387;48.772;9.186;2023-05-07T01:29:54;14.60;80.50
810;DHT22;387;48.772;9.186;2023-05-07T01:32:33;14.60;80.50
810;DHT22;387;48.772;9.186;2023-05-07T01:35:02;14.60;80.30
810;DHT22;387;48.772;9.186;2023-05-07T01:37:30;14.60;80.80
810;DHT22;387;48.772;9.186;2023-05-07T01:39:56;14.50;80.80
810;DHT22;387;48.772;9.186;2023-05-07T01:42:22;14.60;80.80
810;DHT22;387;48.772;9.186;2023-05-07T01:44:48;14.60;80.50
810;DHT22;387;48.772;9.186;2023-05-07T01:47:14;14.50;80.30
810;DHT22;387;48.772;9.186;2023-05-07T01:49:42;14.60;80.30
810;DHT22;387;48.772;9.186;2023-05-07T01:52:09;14.60;80.30
810;DHT22;387;48.772;9.186;2023-05-07T01:54:35;14.60;80.20
810;DHT22;387;48.772;9.186;2023-05-07T01:57:01;14.60;80.30
810;DHT22;387;48.772;9.186;2023-05-07T01:59:27;14.60;80.50
810;DHT22;387;48.772;9.186;2023-05-07T02:01:52;14.60;80.30
810;DHT22;387;48.772;9.186;2023-05-07T02:04:18;14.60;80.20
810;DHT22;387;48.772;9.186;2023-05-07T02:06:43;14.70;80.00
810;DHT22;387;48.772;9.186;2023-05-07T02:09:09;14.70;79.70
810;DHT22;387;48.772;9.186;2023-05-07T02:11:35;14.70;79.70
810;DHT22;387;48.772;9.186;2023-05-07T02:14:01;14.70;79.60
810;DHT22;387;48.772;9.186;2023-05-07T02:16:26;14.70;79.60
810;DHT22;387;48.772;9.186;2023-05-07T02:18:52;14.70;79.60
810;DHT22;387;48.772;9.186;2023-05-07T02:21:17;14.70;79.60
810;DHT22;387;48.772;9.186;2023-05-07T02:23:43;14.70;79.50
810;DHT22;387;48.772;9.186;2023-05-07T02:26:10;14.70;79.70
810;DHT22;387;48.772;9.186;2023-05-07T02:28:36;14.80;79.60
810;DHT22;387;48.772;9.186;2023-05-07T02:31:05;14.70;79.50
810;DHT22;387;48.772;9.186;2023-05-07T02:33:31;14.70;79.90
810;DHT22;387;48.772;9.186;2023-05-07T02:35:56;14.50;80.20
810;DHT22;387;48.772;9.186;2023-05-07T02:38:22;14.40;80.50
810;DHT22;387;48.772;9.186;2023-05-07T02:40:48;14.30;81.40
810;DHT22;387;48.772;9.186;2023-05-07T02:43:14;14.30;81.40
810;DHT22;387;48.772;9.186;2023-05-07T02:45:40;14.20;81.50
810;DHT22;387;48.772;9.186;2023-05-07T02:48:05;14.30;81.50
810;DHT22;387;48.772;9.186;2023-05-07T02:50:31;14.30;81.40
810;DHT22;387;48.772;9.186;2023-05-07T02:52:58;14.30;81.20
810;DHT22;387;48.772;9.186;2023-05-07T02:55:23;14.20;81.80
810;DHT22;387;48.772;9.186;2023-05-07T02:57:49;14.20;81.90
810;DHT22;387;48.772;9.186;2023-05-07T03:00:17;14.20;82.10
810;DHT22;387;48.772;9.186;2023-05-07T03:02:46;14.20;81.90
810;DHT22;387;48.772;9.186;2023-05-07T03:05:12;14.20;82.10
810;DHT22;387;48.772;9.186;2023-05-07T03:07:38;14.00;82.70
810;DHT22;387;48.772;9.186;2023-05-07T03:10:04;13.80;83.60
810;DHT22;387;48.772;9.186;2023-05-07T03:12:30;13.70;84.00
810;DHT22;387;48.772;9.186;2023-05-07T03:14:56;13.70;84.10
810;DHT22;387;48.772;9.186;2023-05-07T03:17:22;13.60;84.60
810;DHT22;387;48.772;9.186;2023-05-07T03:19:48;13.60;84.90
810;DHT22;387;48.772;9.186;2023-05-07T03:22:14;13.60;84.70
810;DHT22;387;48.772;9.186;2023-05-07T03:24:39;13.60;84.40
810;DHT22;387;48.772;9.186;2023-05-07T03:27:05;13.60;84.10
810;DHT22;387;48.772;9.186;2023-05-07T03:29:31;13.60;83.80
810;DHT22;387;48.772;9.186;2023-05-07T03:31:56;13.70;83.80
810;DHT22;387;48.772;9.186;2023-05-07T03:34:22;13.80;83.60
810;DHT22;387;48.772;9.186;2023-05-07T03:36:50;13.70;83.30
810;DHT22;387;48.772;9.186;2023-05-07T03:39:16;13.60;83.70
810;DHT22;387;48.772;9.186;2023-05-07T03:41:42;13.60;84.00
810;DHT22;387;48.772;9.186;2023-05-07T03:44:08;13.60;84.00
810;DHT22;387;48.772;9.186;2023-05-07T03:46:33;13.50;84.40
810;DHT22;387;48.772;9.186;2023-05-07T03:48:59;13.60;84.40
810;DHT22;387;48.772;9.186;2023-05-07T03:51:25;13.60;84.30
810;DHT22;387;48.772;9.186;2023-05-07T03:53:51;13.60;84.00
810;DHT22;387;48.772;9.186;2023-05-07T03:56:19;13.60;84.00
810;DHT22;387;48.772;9.186;2023-05-07T03:58:47;13.50;83.80
810;DHT22;387;48.772;9.186;2023-05-07T04:01:12;13.60;83.40
810;DHT22;387;48.772;9.186;2023-05-07T04:03:38;13.60;83.00
810;DHT22;387;48.772;9.186;2023-05-07T04:06:04;13.60;82.80
810;DHT22;387;48.772;9.186;2023-05-07T04:08:29;13.70;82.70
810;DHT22;387;48.772;9.186;2023-05-07T04:10:58;13.70;82.70
810;DHT22;387;48.772;9.186;2023-05-07T04:13:24;13.70;83.00
810;DHT22;387;48.772;9.186;2023-05-07T04:15:51;13.70;83.30
810;DHT22;387;48.772;9.186;2023-05-07T04:18:17;13.60;83.40
810;DHT22;387;48.772;9.186;2023-05-07T04:20:42;13.60;83.80
810;DHT22;387;48.772;9.186;2023-05-07T04:23:08;13.50;84.40
810;DHT22;387;48.772;9.186;2023-05-07T04:25:34;13.50;84.60
810;DHT22;387;48.772;9.186;2023-05-07T04:27:59;13.50;84.30
810;DHT22;387;48.772;9.186;2023-05-07T04:30:25;13.50;84.60
810;DHT22;387;48.772;9.186;2023-05-07T04:32:51;13.50;84.70
810;DHT22;387;48.772;9.186;2023-05-07T04:35:18;13.60;84.40
810;DHT22;387;48.772;9.186;2023-05-07T04:37:44;13.60;83.80
810;DHT22;387;48.772;9.186;2023-05-07T04:40:10;13.60;83.30
810;DHT22;387;48.772;9.186;2023-05-07T04:42:35;13.70;82.80
810;DHT22;387;48.772;9.186;2023-05-07T04:45:01;13.70;83.10
810;DHT22;387;48.772;9.186;2023-05-07T04:47:27;13.70;83.00
810;DHT22;387;48.772;9.186;2023-05-07T04:49:53;13.80;82.80
810;DHT22;387;48.772;9.186;2023-05-07T04:52:18;13.80;82.80
810;DHT22;387;48.772;9.186;2023-05-07T04:54:44;13.80;82.70
810;DHT22;387;48.772;9.186;2023-05-07T04:57:10;13.90;82.70
810;DHT22;387;48.772;9.186;2023-05-07T04:59:35;14.00;82.70
810;DHT22;387;48.772;9.186;2023-05-07T05:02:01;14.00;82.50
810;DHT22;387;48.772;9.186;2023-05-07T05:04:27;14.00;82.50
810;DHT22;387;48.772;9.186;2023-05-07T05:06:52;13.90;82.80
810;DHT22;387;48.772;9.186;2023-05-07T05:09:18;14.00;82.40
810;DHT22;387;48.772;9.186;2023-05-07T05:11:44;14.00;82.20
810;DHT22;387;48.772;9.186;2023-05-07T05:14:10;14.10;82.10
810;DHT22;387;48.772;9.186;2023-05-07T05:16:35;14.10;81.90
810;DHT22;387;48.772;9.186;2023-05-07T05:19:01;14.00;81.80
810;DHT22;387;48.772;9.186;2023-05-07T05:21:27;14.10;81.90
810;DHT22;387;48.772;9.186;2023-05-07T05:23:52;14.10;81.80
810;DHT22;387;48.772;9.186;2023-05-07T05:26:18;14.20;81.50
810;DHT22;387;48.772;9.186;2023-05-07T05:28:44;14.30;81.20
810;DHT22;387;48.772;9.186;2023-05-07T05:31:10;14.30;81.10
810;DHT22;387;48.772;9.186;2023-05-07T05:33:35;14.40;81.20
810;DHT22;387;48.772;9.186;2023-05-07T05:36:01;14.40;81.20
810;DHT22;387;48.772;9.186;2023-05-07T05:38:27;14.30;81.50
810;DHT22;387;48.772;9.186;2023-05-07T05:40:52;14.20;81.80
810;DHT22;387;48.772;9.186;2023-05-07T05:43:18;14.20;82.20
810;DHT22;387;48.772;9.186;2023-05-07T05:45:43;14.40;82.10
810;DHT22;387;48.772;9.186;2023-05-07T05:48:09;14.60;80.20
810;DHT22;387;48.772;9.186;2023-05-07T05:50:35;14.50;80.00
810;DHT22;387;48.772;9.186;2023-05-07T05:53:03;14.50;80.30
810;DHT22;387;48.772;9.186;2023-05-07T05:55:29;14.50;80.60
810;DHT22;387;48.772;9.186;2023-05-07T05:57:58;14.50;80.80
810;DHT22;387;48.772;9.186;2023-05-07T06:00:23;14.50;81.10
810;DHT22;387;48.772;9.186;2023-05-07T06:02:49;14.50;80.90
810;DHT22;387;48.772;9.186;2023-05-07T06:05:15;14.70;80.80
810;DHT22;387;48.772;9.186;2023-05-07T06:07:40;14.80;80.50
810;DHT22;387;48.772;9.186;2023-05-07T06:10:06;14.90;79.70
810;DHT22;387;48.772;9.186;2023-05-07T06:12:32;14.90;79.50
810;DHT22;387;48.772;9.186;2023-05-07T06:14:58;15.10;79.30
810;DHT22;387;48.772;9.186;2023-05-07T06:17:23;15.30;78.60
810;DHT22;387;48.772;9.186;2023-05-07T06:19:49;15.40;78.00
810;DHT22;387;48.772;9.186;2023-05-07T06:22:15;15.50;77.60
810;DHT22;387;48.772;9.186;2023-05-07T06:24:40;15.60;76.80
810;DHT22;387;48.772;9.186;2023-05-07T06:27:06;15.70;76.20
810;DHT22;387;48.772;9.186;2023-05-07T06:29:32;15.80;76.20
810;DHT22;387;48.772;9.186;2023-05-07T06:32:12;15.80;76.20
810;DHT22;387;48.772;9.186;2023-05-07T06:34:39;15.80;76.50
810;DHT22;387;48.772;9.186;2023-05-07T06:37:05;15.90;76.80
810;DHT22;387;48.772;9.186;2023-05-07T06:39:31;15.90;76.80
810;DHT22;387;48.772;9.186;2023-05-07T06:41:57;15.80;76.80
810;DHT22;387;48.772;9.186;2023-05-07T06:44:23;15.90;77.00
810;DHT22;387;48.772;9.186;2023-05-07T06:46:48;16.00;76.50
810;DHT22;387;48.772;9.186;2023-05-07T06:49:14;16.00;76.80
810;DHT22;387;48.772;9.186;2023-05-07T06:51:40;16.00;77.30
810;DHT22;387;48.772;9.186;2023-05-07T06:54:06;15.90;77.80
810;DHT22;387;48.772;9.186;2023-05-07T06:56:32;15.70;78.60
810;DHT22;387;48.772;9.186;2023-05-07T06:59:00;15.70;78.60
810;DHT22;387;48.772;9.186;2023-05-07T07:01:25;15.60;79.00
810;DHT22;387;48.772;9.186;2023-05-07T07:03:51;15.60;79.60
810;DHT22;387;48.772;9.186;2023-05-07T07:06:17;15.70;79.20
810;DHT22;387;48.772;9.186;2023-05-07T07:08:42;15.90;79.00
810;DHT22;387;48.772;9.186;2023-05-07T07:11:09;15.90;78.40
810;DHT22;387;48.772;9.186;2023-05-07T07:13:35;16.10;78.00
810;DHT22;387;48.772;9.186;2023-05-07T07:16:00;16.30;77.70
810;DHT22;387;48.772;9.186;2023-05-07T07:18:26;16.50;77.00
810;DHT22;387;48.772;9.186;2023-05-07T07:20:51;16.50;75.90
810;DHT22;387;48.772;9.186;2023-05-07T07:23:17;16.50;76.40
810;DHT22;387;48.772;9.186;2023-05-07T07:25:43;16.70;75.80
810;DHT22;387;48.772;9.186;2023-05-07T07:28:08;16.80;75.50
810;DHT22;387;48.772;9.186;2023-05-07T07:30:34;16.90;74.80
810;DHT22;387;48.772;9.186;2023-05-07T07:33:00;17.00;74.60
810;DHT22;387;48.772;9.186;2023-05-07T07:35:33;17.20;73.90
810;DHT22;387;48.772;9.186;2023-05-07T07:37:59;17.40;73.60
810;DHT22;387;48.772;9.186;2023-05-07T07:40:24;17.80;72.10
810;DHT22;387;48.772;9.186;2023-05-07T07:42:51;17.80;71.70
810;DHT22;387;48.772;9.186;2023-05-07T07:45:17;17.90;71.70
810;DHT22;387;48.772;9.186;2023-05-07T07:47:42;18.20;71.70
810;DHT22;387;48.772;9.186;2023-05-07T07:50:08;18.60;70.10
810;DHT22;387;48.772;9.186;2023-05-07T07:52:34;18.80;69.10
810;DHT22;387;48.772;9.186;2023-05-07T07:55:00;19.00;69.10
810;DHT22;387;48.772;9.186;2023-05-07T07:57:26;19.00;68.80
810;DHT22;387;48.772;9.186;2023-05-07T07:59:51;19.00;68.80
810;DHT22;387;48.772;9.186;2023-05-07T08:02:17;19.00;68.30
810;DHT22;387;48.772;9.186;2023-05-07T08:04:43;19.20;68.30
810;DHT22;387;48.772;9.186;2023-05-07T08:07:10;19.30;67.60
810;DHT22;387;48.772;9.186;2023-05-07T08:09:36;19.60;67.60
810;DHT22;387;48.772;9.186;2023-05-07T08:12:02;19.70;67.20
810;DHT22;387;48.772;9.186;2023-05-07T08:14:28;19.60;66.60
810;DHT22;387;48.772;9.186;2023-05-07T08:16:54;19.70;67.00
810;DHT22;387;48.772;9.186;2023-05-07T08:19:20;20.10;66.40
810;DHT22;387;48.772;9.186;2023-05-07T08:21:47;20.30;65.60
810;DHT22;387;48.772;9.186;2023-05-07T08:24:14;20.10;66.00
810;DHT22;387;48.772;9.186;2023-05-07T08:26:39;20.00;66.40
810;DHT22;387;48.772;9.186;2023-05-07T08:29:05;19.90;66.30
810;DHT22;387;48.772;9.186;2023-05-07T08:31:31;20.20;66.00
810;DHT22;387;48.772;9.186;2023-05-07T08:34:00;20.50;65.30
810;DHT22;387;48.772;9.186;2023-05-07T08:36:26;20.60;65.10
810;DHT22;387;48.772;9.186;2023-05-07T08:38:52;20.80;64.80
810;DHT22;387;48.772;9.186;2023-05-07T08:41:18;20.80;64.80
810;DHT22;387;48.772;9.186;2023-05-07T08:43:48;21.00;64.80
810;DHT22;387;48.772;9.186;2023-05-07T08:46:18;21.10;64.70
810;DHT22;387;48.772;9.186;2023-05-07T08:48:45;21.10;65.10
810;DHT22;387;48.772;9.186;2023-05-07T08:51:15;21.20;64.70
810;DHT22;387;48.772;9.186;2023-05-07T08:53:41;21.30;65.30
810;DHT22;387;48.772;9.186;2023-05-07T08:56:08;21.40;64.20
810;DHT22;387;48.772;9.186;2023-05-07T08:58:34;21.50;64.10
810;DHT22;387;48.772;9.186;2023-05-07T09:01:07;21.50;64.20
810;DHT22;387;48.772;9.186;2023-05-07T09:03:33;21.70;63.80
810;DHT22;387;48.772;9.186;2023-05-07T09:05:59;21.80;63.80
810;DHT22;387;48.772;9.186;2023-05-07T09:08:26;21.90;63.50
810;DHT22;387;48.772;9.186;2023-05-07T09:10:52;22.00;63.20
810;DHT22;387;48.772;9.186;2023-05-07T09:13:18;21.80;63.40
810;DHT22;387;48.772;9.186;2023-05-07T09:15:43;21.80;63.70
810;DHT22;387;48.772;9.186;2023-05-07T09:18:09;22.00;63.40
810;DHT22;387;48.772;9.186;2023-05-07T09:20:36;21.90;63.70
810;DHT22;387;48.772;9.186;2023-05-07T09:23:02;22.10;63.40
810;DHT22;387;48.772;9.186;2023-05-07T09:25:32;22.10;62.90
810;DHT22;387;48.772;9.186;2023-05-07T09:27:58;22.10;63.40
810;DHT22;387;48.772;9.186;2023-05-07T09:30:28;22.20;62.90
810;DHT22;387;48.772;9.186;2023-05-07T09:32:54;22.40;62.60
810;DHT22;387;48.772;9.186;2023-05-07T09:35:20;22.10;62.20
810;DHT22;387;48.772;9.186;2023-05-07T09:37:53;22.30;62.80
810;DHT22;387;48.772;9.186;2023-05-07T09:40:24;22.40;62.30
810;DHT22;387;48.772;9.186;2023-05-07T09:42:50;22.50;62.00
810;DHT22;387;48.772;9.186;2023-05-07T09:45:24;22.50;62.20
810;DHT22;387;48.772;9.186;2023-05-07T09:47:54;22.40;61.50
810;DHT22;387;48.772;9.186;2023-05-07T09:50:28;22.50;61.70
810;DHT22;387;48.772;9.186;2023-05-07T09:52:55;22.60;61.60
810;DHT22;387;48.772;9.186;2023-05-07T09:55:22;22.80;61.20
810;DHT22;387;48.772;9.186;2023-05-07T09:57:52;22.80;60.40
810;DHT22;387;48.772;9.186;2023-05-07T10:00:22;22.90;60.70
810;DHT22;387;48.772;9.186;2023-05-07T10:02:49;23.20;60.30
810;DHT22;387;48.772;9.186;2023-05-07T10:05:18;23.60;59.20
810;DHT22;387;48.772;9.186;2023-05-07T10:07:44;23.80;58.80
810;DHT22;387;48.772;9.186;2023-05-07T10:10:10;24.10;57.30
810;DHT22;387;48.772;9.186;2023-05-07T10:12:36;24.40;56.60
810;DHT22;387;48.772;9.186;2023-05-07T10:15:06;24.70;56.40
810;DHT22;387;48.772;9.186;2023-05-07T10:17:38;24.70;56.60
810;DHT22;387;48.772;9.186;2023-05-07T10:20:05;24.80;56.10
810;DHT22;387;48.772;9.186;2023-05-07T10:22:45;25.10;56.20
810;DHT22;387;48.772;9.186;2023-05-07T10:25:22;25.10;54.80
810;DHT22;387;48.772;9.186;2023-05-07T10:27:51;25.20;54.90
810;DHT22;387;48.772;9.186;2023-05-07T10:30:38;25.20;55.00
810;DHT22;387;48.772;9.186;2023-05-07T10:33:07;25.60;53.40
810;DHT22;387;48.772;9.186;2023-05-07T10:35:57;26.00;52.80
810;DHT22;387;48.772;9.186;2023-05-07T10:38:24;26.30;52.40
810;DHT22;387;48.772;9.186;2023-05-07T10:40:51;26.30;51.80
810;DHT22;387;48.772;9.186;2023-05-07T10:43:17;26.60;51.20
810;DHT22;387;48.772;9.186;2023-05-07T10:45:42;26.70;51.00
810;DHT22;387;48.772;9.186;2023-05-07T10:48:15;26.20;52.40
810;DHT22;387;48.772;9.186;2023-05-07T10:50:42;25.80;53.60
810;DHT22;387;48.772;9.186;2023-05-07T10:55:50;25.60;54.10
810;DHT22;387;48.772;9.186;2023-05-07T11:00:48;25.90;52.90
810;DHT22;387;48.772;9.186;2023-05-07T11:03:14;25.60;52.90
810;DHT22;387;48.772;9.186;2023-05-07T11:05:41;25.10;54.90
810;DHT22;387;48.772;9.186;2023-05-07T11:08:08;25.40;54.20
810;DHT22;387;48.772;9.186;2023-05-07T11:10:56;25.70;52.50
810;DHT22;387;48.772;9.186;2023-05-07T11:13:56;25.30;52.90
810;DHT22;387;48.772;9.186;2023-05-07T11:16:23;25.30;52.10
810;DHT22;387;48.772;9.186;2023-05-07T11:18:50;25.40;51.60
810;DHT22;387;48.772;9.186;2023-05-07T11:21:39;25.10;51.60
810;DHT22;387;48.772;9.186;2023-05-07T11:24:06;25.30;51.80
810;DHT22;387;48.772;9.186;2023-05-07T11:26:50;25.40;51.00
810;DHT22;387;48.772;9.186;2023-05-07T11:29:20;25.10;50.10
810;DHT22;387;48.772;9.186;2023-05-07T11:31:53;25.20;49.70
810;DHT22;387;48.772;9.186;2023-05-07T11:34:25;24.80;50.70
810;DHT22;387;48.772;9.186;2023-05-07T11:36:51;25.00;50.10
810;DHT22;387;48.772;9.186;2023-05-07T11:39:33;25.00;49.90
810;DHT22;387;48.772;9.186;2023-05-07T11:42:02;24.90;50.60
810;DHT22;387;48.772;9.186;2023-05-07T11:44:48;24.90;50.60
810;DHT22;387;48.772;9.186;2023-05-07T11:47:18;24.80;50.30
810;DHT22;387;48.772;9.186;2023-05-07T11:49:47;24.70;51.00
810;DHT22;387;48.772;9.186;2023-05-07T11:52:14;24.50;53.40
810;DHT22;387;48.772;9.186;2023-05-07T11:54:39;24.00;55.40
810;DHT22;387;48.772;9.186;2023-05-07T11:57:05;24.00;56.50
810;DHT22;387;48.772;9.186;2023-05-07T11:59:41;23.60;57.40
810;DHT22;387;48.772;9.186;2023-05-07T12:02:09;23.60;57.30
810;DHT22;387;48.772;9.186;2023-05-07T12:04:35;23.50;57.40
810;DHT22;387;48.772;9.186;2023-05-07T12:07:01;23.40;57.60
810;DHT22;387;48.772;9.186;2023-05-07T12:09:26;23.30;57.60
810;DHT22;387;48.772;9.186;2023-05-07T12:11:52;23.10;58.40
810;DHT22;387;48.772;9.186;2023-05-07T12:14:18;23.00;59.70
810;DHT22;387;48.772;9.186;2023-05-07T12:16:44;22.60;62.30
810;DHT22;387;48.772;9.186;2023-05-07T12:19:11;22.40;64.80
810;DHT22;387;48.772;9.186;2023-05-07T12:21:40;22.20;66.40
810;DHT22;387;48.772;9.186;2023-05-07T12:24:06;22.10;64.20
810;DHT22;387;48.772;9.186;2023-05-07T12:26:31;21.70;67.60
810;DHT22;387;48.772;9.186;2023-05-07T12:28:57;21.30;67.70
810;DHT22;387;48.772;9.186;2023-05-07T12:31:26;20.70;69.40
810;DHT22;387;48.772;9.186;2023-05-07T12:33:51;20.30;70.40
810;DHT22;387;48.772;9.186;2023-05-07T12:36:17;19.60;71.70
810;DHT22;387;48.772;9.186;2023-05-07T12:38:44;18.80;75.70
810;DHT22;387;48.772;9.186;2023-05-07T12:41:10;18.30;78.60
810;DHT22;387;48.772;9.186;2023-05-07T12:43:37;17.80;79.30
810;DHT22;387;48.772;9.186;2023-05-07T12:46:06;17.40;81.50
810;DHT22;387;48.772;9.186;2023-05-07T12:48:32;17.00;85.70
810;DHT22;387;48.772;9.186;2023-05-07T12:51:00;16.60;87.80
810;DHT22;387;48.772;9.186;2023-05-07T12:53:27;16.00;87.60
810;DHT22;387;48.772;9.186;2023-05-07T12:55:57;15.60;84.70
810;DHT22;387;48.772;9.186;2023-05-07T12:58:27;15.80;83.70
810;DHT22;387;48.772;9.186;2023-05-07T13:00:54;15.70;82.10
810;DHT22;387;48.772;9.186;2023-05-07T13:06:06;15.70;82.80
810;DHT22;387;48.772;9.186;2023-05-07T13:08:37;15.50;84.40
810;DHT22;387;48.772;9.186;2023-05-07T13:11:03;15.40;86.60
810;DHT22;387;48.772;9.186;2023-05-07T13:13:31;15.30;88.70
810;DHT22;387;48.772;9.186;2023-05-07T13:15:56;15.20;90.30
810;DHT22;387;48.772;9.186;2023-05-07T13:18:23;15.10;91.00
810;DHT22;387;48.772;9.186;2023-05-07T13:20:49;15.00;91.40
810;DHT22;387;48.772;9.186;2023-05-07T13:23:15;15.00;92.00
810;DHT22;387;48.772;9.186;2023-05-07T13:25:40;15.10;92.40
810;DHT22;387;48.772;9.186;2023-05-07T13:28:06;15.10;92.30
810;DHT22;387;48.772;9.186;2023-05-07T13:30:32;15.00;91.80
810;DHT22;387;48.772;9.186;2023-05-07T13:32:57;15.00;91.10
810;DHT22;387;48.772;9.186;2023-05-07T13:35:23;15.00;90.40
810;DHT22;387;48.772;9.186;2023-05-07T13:37:49;15.00;90.20
810;DHT22;387;48.772;9.186;2023-05-07T13:40:15;15.10;90.50
810;DHT22;387;48.772;9.186;2023-05-07T13:42:40;15.10;90.50
810;DHT22;387;48.772;9.186;2023-05-07T13:45:07;15.10;91.00
810;DHT22;387;48.772;9.186;2023-05-07T13:47:33;15.20;91.40
810;DHT22;387;48.772;9.186;2023-05-07T13:49:58;15.20;91.80
810;DHT22;387;48.772;9.186;2023-05-07T13:52:24;15.20;91.80
810;DHT22;387;48.772;9.186;2023-05-07T13:54:50;15.30;91.60
810;DHT22;387;48.772;9.186;2023-05-07T13:57:17;15.30;91.30
810;DHT22;387;48.772;9.186;2023-05-07T13:59:43;15.30;91.10
810;DHT22;387;48.772;9.186;2023-05-07T14:02:09;15.30;90.70
810;DHT22;387;48.772;9.186;2023-05-07T14:04:34;15.30;90.20
810;DHT22;387;48.772;9.186;2023-05-07T14:07:00;15.30;89.70
810;DHT22;387;48.772;9.186;2023-05-07T14:09:26;15.30;89.30
810;DHT22;387;48.772;9.186;2023-05-07T14:11:51;15.30;89.90
810;DHT22;387;48.772;9.186;2023-05-07T14:14:18;15.30;90.10
810;DHT22;387;48.772;9.186;2023-05-07T14:16:44;15.30;90.40
810;DHT22;387;48.772;9.186;2023-05-07T14:19:10;15.30;90.70
810;DHT22;387;48.772;9.186;2023-05-07T14:21:36;15.30;89.90
810;DHT22;387;48.772;9.186;2023-05-07T14:24:02;15.30;89.00
810;DHT22;387;48.772;9.186;2023-05-07T14:26:27;15.30;88.40
810;DHT22;387;48.772;9.186;2023-05-07T14:28:53;15.30;89.20
810;DHT22;387;48.772;9.186;2023-05-07T14:31:21;15.30;89.60
810;DHT22;387;48.772;9.186;2023-05-07T14:33:46;15.20;89.20
810;DHT22;387;48.772;9.186;2023-05-07T14:36:12;15.20;89.30
810;DHT22;387;48.772;9.186;2023-05-07T14:38:37;15.20;89.20
810;DHT22;387;48.772;9.186;2023-05-07T14:41:03;15.20;89.90
810;DHT22;387;48.772;9.186;2023-05-07T14:43:29;15.20;90.30
810;DHT22;387;48.772;9.186;2023-05-07T14:45:54;15.20;90.70
810;DHT22;387;48.772;9.186;2023-05-07T14:48:20;15.20;90.40
810;DHT22;387;48.772;9.186;2023-05-07T14:50:49;15.30;90.80
810;DHT22;387;48.772;9.186;2023-05-07T14:53:15;15.30;90.80
810;DHT22;387;48.772;9.186;2023-05-07T14:55:41;15.40;90.50
810;DHT22;387;48.772;9.186;2023-05-07T14:58:07;15.50;90.70
810;DHT22;387;48.772;9.186;2023-05-07T15:00:33;15.60;91.00
810;DHT22;387;48.772;9.186;2023-05-07T15:03:05;15.70;91.20
810;DHT22;387;48.772;9.186;2023-05-07T15:05:32;15.80;91.20
810;DHT22;387;48.772;9.186;2023-05-07T15:07:57;15.80;91.30
810;DHT22;387;48.772;9.186;2023-05-07T15:10:23;15.90;91.50
810;DHT22;387;48.772;9.186;2023-05-07T15:12:49;16.00;91.60
810;DHT22;387;48.772;9.186;2023-05-07T15:15:15;16.10;91.50
810;DHT22;387;48.772;9.186;2023-05-07T15:17:40;16.20;91.20
810;DHT22;387;48.772;9.186;2023-05-07T15:20:08;16.30;91.30
810;DHT22;387;48.772;9.186;2023-05-07T15:22:34;16.40;91.40
810;DHT22;387;48.772;9.186;2023-05-07T15:25:01;16.60;91.50
810;DHT22;387;48.772;9.186;2023-05-07T15:27:27;16.60;91.40
810;DHT22;387;48.772;9.186;2023-05-07T15:29:52;16.70;91.50
810;DHT22;387;48.772;9.186;2023-05-07T15:32:18;16.70;91.10
810;DHT22;387;48.772;9.186;2023-05-07T15:34:43;16.60;90.50
810;DHT22;387;48.772;9.186;2023-05-07T15:37:09;16.50;89.60
810;DHT22;387;48.772;9.186;2023-05-07T15:39:35;16.60;89.90
810;DHT22;387;48.772;9.186;2023-05-07T15:42:00;16.60;89.60
810;DHT22;387;48.772;9.186;2023-05-07T15:44:26;16.80;90.20
810;DHT22;387;48.772;9.186;2023-05-07T15:46:54;17.00;90.50
810;DHT22;387;48.772;9.186;2023-05-07T15:49:19;17.00;90.30
810;DHT22;387;48.772;9.186;2023-05-07T15:51:45;17.10;90.10
810;DHT22;387;48.772;9.186;2023-05-07T15:54:10;17.10;90.10
810;DHT22;387;48.772;9.186;2023-05-07T15:56:36;17.10;90.10
810;DHT22;387;48.772;9.186;2023-05-07T15:59:02;17.10;90.00
810;DHT22;387;48.772;9.186;2023-05-07T16:01:28;17.20;90.00
810;DHT22;387;48.772;9.186;2023-05-07T16:03:54;17.20;89.90
810;DHT22;387;48.772;9.186;2023-05-07T16:06:20;17.20;89.90
810;DHT22;387;48.772;9.186;2023-05-07T16:08:46;17.10;90.00
810;DHT22;387;48.772;9.186;2023-05-07T16:11:11;17.20;90.00
810;DHT22;387;48.772;9.186;2023-05-07T16:13:37;17.20;89.90
810;DHT22;387;48.772;9.186;2023-05-07T16:16:03;17.10;89.90
810;DHT22;387;48.772;9.186;2023-05-07T16:18:29;17.10;90.00
810;DHT22;387;48.772;9.186;2023-05-07T16:20:55;17.10;90.10
810;DHT22;387;48.772;9.186;2023-05-07T16:23:20;17.00;90.00
810;DHT22;387;48.772;9.186;2023-05-07T16:25:47;17.00;90.00
810;DHT22;387;48.772;9.186;2023-05-07T16:28:13;17.10;90.30
810;DHT22;387;48.772;9.186;2023-05-07T16:30:39;17.10;90.30
810;DHT22;387;48.772;9.186;2023-05-07T16:33:04;17.20;90.40
810;DHT22;387;48.772;9.186;2023-05-07T16:35:30;17.20;90.40
810;DHT22;387;48.772;9.186;2023-05-07T16:37:56;17.10;90.40
810;DHT22;387;48.772;9.186;2023-05-07T16:40:21;17.20;90.60